createdAt,value
2022-12-18T00:00:27.848Z,0.00
2022-12-18T00:01:27.928Z,0.00
2022-12-18T00:02:27.937Z,0.00
2022-12-18T00:03:28.025Z,0.00
2022-12-18T00:04:27.921Z,0.00
2022-12-18T00:05:27.831Z,0.00
2022-12-18T00:06:27.841Z,0.00
2022-12-18T00:07:27.832Z,0.00
2022-12-18T00:08:27.882Z,0.00
2022-12-18T00:09:30.964Z,0.00
2022-12-18T00:10:28.813Z,0.00
2022-12-18T00:11:27.827Z,0.00
2022-12-18T00:12:29.885Z,0.00
2022-12-18T00:13:27.788Z,0.00
2022-12-18T00:14:27.803Z,0.00
2022-12-18T00:15:27.802Z,0.00
2022-12-18T00:16:28.052Z,0.00
2022-12-18T00:17:27.781Z,0.00
2022-12-18T00:18:27.751Z,0.00
2022-12-18T00:19:27.851Z,0.00
2022-12-18T00:20:27.739Z,0.00
2022-12-18T00:21:27.954Z,0.00
2022-12-18T00:22:27.746Z,0.00
2022-12-18T00:23:27.706Z,0.00
2022-12-18T00:24:27.724Z,0.00
2022-12-18T00:25:27.732Z,0.00
2022-12-18T00:26:27.747Z,0.00
2022-12-18T00:27:27.683Z,0.00
2022-12-18T00:28:27.696Z,0.00
2022-12-18T00:29:27.681Z,0.00
2022-12-18T00:30:27.694Z,0.00
2022-12-18T00:31:27.719Z,0.00
2022-12-18T00:32:27.675Z,0.00
2022-12-18T00:33:27.708Z,0.00
2022-12-18T00:34:27.675Z,0.00
2022-12-18T00:35:27.735Z,0.00
2022-12-18T00:36:27.691Z,0.00
2022-12-18T00:37:27.651Z,0.00
2022-12-18T00:38:27.644Z,0.00
2022-12-18T00:39:27.650Z,0.00
2022-12-18T00:40:27.756Z,0.00
2022-12-18T00:41:27.656Z,0.00
2022-12-18T00:42:27.632Z,0.00
2022-12-18T00:43:27.606Z,0.00
2022-12-18T00:44:27.697Z,0.00
2022-12-18T00:45:27.699Z,0.00
2022-12-18T00:46:27.631Z,0.00
2022-12-18T00:47:27.575Z,0.00
2022-12-18T00:48:27.561Z,0.00
2022-12-18T00:49:28.553Z,0.00
2022-12-18T00:50:27.556Z,0.00
2022-12-18T00:51:27.566Z,0.00
2022-12-18T00:52:28.547Z,0.00
2022-12-18T00:53:27.515Z,0.00
2022-12-18T00:54:27.505Z,0.00
2022-12-18T00:55:27.598Z,0.00
2022-12-18T00:56:27.553Z,0.00
2022-12-18T00:57:27.566Z,0.00
2022-12-18T00:58:27.491Z,0.00
2022-12-18T00:59:27.527Z,0.00
2022-12-18T01:00:27.573Z,0.00
2022-12-18T01:01:27.603Z,0.00
2022-12-18T01:02:27.673Z,0.00
2022-12-18T01:03:27.494Z,0.00
2022-12-18T01:04:27.459Z,0.00
2022-12-18T01:05:27.474Z,0.00
2022-12-18T01:06:27.446Z,0.00
2022-12-18T01:07:27.425Z,0.00
2022-12-18T01:08:27.492Z,0.00
2022-12-18T01:09:27.419Z,0.00
2022-12-18T01:10:27.424Z,0.00
2022-12-18T01:11:27.399Z,0.00
2022-12-18T01:12:27.394Z,0.00
2022-12-18T01:13:27.446Z,0.00
2022-12-18T01:14:27.391Z,0.00
2022-12-18T01:15:27.438Z,0.00
2022-12-18T01:16:27.438Z,0.00
2022-12-18T01:17:27.407Z,0.00
2022-12-18T01:18:27.395Z,0.00
2022-12-18T01:19:27.403Z,0.00
2022-12-18T01:20:27.369Z,0.00
2022-12-18T01:21:27.342Z,0.00
2022-12-18T01:22:27.328Z,0.00
2022-12-18T01:23:27.352Z,0.00
2022-12-18T01:24:27.359Z,0.00
2022-12-18T01:25:27.297Z,0.00
2022-12-18T01:26:27.345Z,0.00
2022-12-18T01:27:27.301Z,0.00
2022-12-18T01:28:27.309Z,0.00
2022-12-18T01:29:27.313Z,0.00
2022-12-18T01:30:27.319Z,0.00
2022-12-18T01:31:27.442Z,0.00
2022-12-18T01:32:27.273Z,0.00
2022-12-18T01:33:27.272Z,0.00
2022-12-18T01:34:27.308Z,0.00
2022-12-18T01:35:27.267Z,0.00
2022-12-18T01:36:27.240Z,0.00
2022-12-18T01:37:27.244Z,0.00
2022-12-18T01:38:27.245Z,0.00
2022-12-18T01:39:27.207Z,0.00
2022-12-18T01:40:27.330Z,0.00
2022-12-18T01:41:27.218Z,0.00
2022-12-18T01:42:27.171Z,0.00
2022-12-18T01:43:27.196Z,0.00
2022-12-18T01:44:27.187Z,0.00
2022-12-18T01:45:27.239Z,0.00
2022-12-18T01:46:27.173Z,0.00
2022-12-18T01:47:27.173Z,0.00
2022-12-18T01:48:27.183Z,0.00
2022-12-18T01:49:27.181Z,0.00
2022-12-18T01:50:27.148Z,0.00
2022-12-18T01:51:27.114Z,0.00
2022-12-18T01:52:27.111Z,0.00
2022-12-18T01:53:27.141Z,0.00
2022-12-18T01:54:27.122Z,0.00
2022-12-18T01:55:27.176Z,0.00
2022-12-18T01:56:27.144Z,0.00
2022-12-18T01:57:27.094Z,0.00
2022-12-18T01:58:27.116Z,0.00
2022-12-18T01:59:27.094Z,0.00
2022-12-18T02:00:27.166Z,0.00
2022-12-18T02:01:27.225Z,0.00
2022-12-18T02:02:27.193Z,0.00
2022-12-18T02:03:27.144Z,0.00
2022-12-18T02:04:27.059Z,0.00
2022-12-18T02:05:27.101Z,0.00
2022-12-18T02:06:27.044Z,0.00
2022-12-18T02:07:27.067Z,0.00
2022-12-18T02:08:27.042Z,0.00
2022-12-18T02:09:27.016Z,0.00
2022-12-18T02:10:27.014Z,0.00
2022-12-18T02:11:27.048Z,0.00
2022-12-18T02:12:27.001Z,0.00
2022-12-18T02:13:28.098Z,0.00
2022-12-18T02:14:26.987Z,0.00
2022-12-18T02:15:27.114Z,0.00
2022-12-18T02:16:27.068Z,0.00
2022-12-18T02:17:26.991Z,0.00
2022-12-18T02:18:26.967Z,0.00
2022-12-18T02:19:26.988Z,0.00
2022-12-18T02:20:27.005Z,0.00
2022-12-18T02:21:26.995Z,0.00
2022-12-18T02:22:26.960Z,0.00
2022-12-18T02:23:26.916Z,0.00
2022-12-18T02:24:26.973Z,0.00
2022-12-18T02:25:26.952Z,0.00
2022-12-18T02:26:26.954Z,0.00
2022-12-18T02:27:26.953Z,0.00
2022-12-18T02:28:26.917Z,0.00
2022-12-18T02:29:26.980Z,0.00
2022-12-18T02:30:26.916Z,0.00
2022-12-18T02:31:26.912Z,0.00
2022-12-18T02:32:26.878Z,0.00
2022-12-18T02:33:26.870Z,0.00
2022-12-18T02:34:26.928Z,0.00
2022-12-18T02:35:26.857Z,0.00
2022-12-18T02:36:26.926Z,0.00
2022-12-18T02:37:26.869Z,0.00
2022-12-18T02:38:26.840Z,0.00
2022-12-18T02:39:26.864Z,0.00
2022-12-18T02:40:26.858Z,0.00
2022-12-18T02:41:26.850Z,0.00
2022-12-18T02:42:26.855Z,0.00
2022-12-18T02:43:26.850Z,0.00
2022-12-18T02:44:26.800Z,0.00
2022-12-18T02:45:26.863Z,0.00
2022-12-18T02:46:26.786Z,0.00
2022-12-18T02:47:26.870Z,0.00
2022-12-18T02:48:26.778Z,0.00
2022-12-18T02:49:26.768Z,0.00
2022-12-18T02:50:26.800Z,0.00
2022-12-18T02:51:26.782Z,0.00
2022-12-18T02:52:26.779Z,0.00
2022-12-18T02:53:26.810Z,0.00
2022-12-18T02:54:26.765Z,0.00
2022-12-18T02:55:26.757Z,0.00
2022-12-18T02:56:26.793Z,0.00
2022-12-18T02:57:26.784Z,0.00
2022-12-18T02:58:26.763Z,0.00
2022-12-18T02:59:26.745Z,0.00
2022-12-18T03:00:26.777Z,0.00
2022-12-18T03:01:26.753Z,0.00
2022-12-18T03:02:27.002Z,0.00
2022-12-18T03:03:26.864Z,0.00
2022-12-18T03:04:26.740Z,0.00
2022-12-18T03:05:26.674Z,0.00
2022-12-18T03:06:26.657Z,0.00
2022-12-18T03:07:26.679Z,0.00
2022-12-18T03:08:26.725Z,0.00
2022-12-18T03:09:26.664Z,0.00
2022-12-18T03:10:26.668Z,0.00
2022-12-18T03:11:26.674Z,0.00
2022-12-18T03:12:26.663Z,0.00
2022-12-18T03:13:26.643Z,0.00
2022-12-18T03:14:26.682Z,0.00
2022-12-18T03:15:26.659Z,0.00
2022-12-18T03:16:26.713Z,0.00
2022-12-18T03:17:26.642Z,0.00
2022-12-18T03:18:26.705Z,0.00
2022-12-18T03:19:26.619Z,0.00
2022-12-18T03:20:26.658Z,0.00
2022-12-18T03:21:26.589Z,0.00
2022-12-18T03:22:26.578Z,0.00
2022-12-18T03:23:26.624Z,0.00
2022-12-18T03:24:27.528Z,0.00
2022-12-18T03:25:26.756Z,0.00
2022-12-18T03:26:26.624Z,0.00
2022-12-18T03:27:26.562Z,0.00
2022-12-18T03:28:26.553Z,0.00
2022-12-18T03:29:26.569Z,0.00
2022-12-18T03:30:26.527Z,0.00
2022-12-18T03:31:26.643Z,0.00
2022-12-18T03:32:26.541Z,0.00
2022-12-18T03:33:26.577Z,0.00
2022-12-18T03:34:26.597Z,0.00
2022-12-18T03:35:26.641Z,0.00
2022-12-18T03:36:26.559Z,0.00
2022-12-18T03:37:26.535Z,0.00
2022-12-18T03:38:26.543Z,0.00
2022-12-18T03:39:26.523Z,0.00
2022-12-18T03:40:26.533Z,0.00
2022-12-18T03:41:26.499Z,0.00
2022-12-18T03:42:26.542Z,0.00
2022-12-18T03:43:26.515Z,0.00
2022-12-18T03:44:26.474Z,0.00
2022-12-18T03:45:26.464Z,0.00
2022-12-18T03:46:26.608Z,0.00
2022-12-18T03:47:26.482Z,0.00
2022-12-18T03:48:26.469Z,0.00
2022-12-18T03:49:26.556Z,0.00
2022-12-18T03:50:26.522Z,0.00
2022-12-18T03:51:26.417Z,0.00
2022-12-18T03:52:26.401Z,0.00
2022-12-18T03:53:26.472Z,0.00
2022-12-18T03:54:26.407Z,0.00
2022-12-18T03:55:26.392Z,0.00
2022-12-18T03:56:26.488Z,0.00
2022-12-18T03:57:26.388Z,0.00
2022-12-18T03:58:26.416Z,0.00
2022-12-18T03:59:26.373Z,0.00
2022-12-18T04:00:26.379Z,0.00
2022-12-18T04:01:26.494Z,0.00
2022-12-18T04:02:26.487Z,0.00
2022-12-18T04:03:26.938Z,0.00
2022-12-18T04:04:27.400Z,0.00
2022-12-18T04:05:26.428Z,0.00
2022-12-18T04:06:26.377Z,0.00
2022-12-18T04:07:26.351Z,0.00
2022-12-18T04:08:26.384Z,0.00
2022-12-18T04:09:26.328Z,0.00
2022-12-18T04:10:26.353Z,0.00
2022-12-18T04:11:26.336Z,0.00
2022-12-18T04:12:26.341Z,0.00
2022-12-18T04:13:26.325Z,0.00
2022-12-18T04:14:26.383Z,0.00
2022-12-18T04:15:26.299Z,0.00
2022-12-18T04:16:26.300Z,0.00
2022-12-18T04:17:26.257Z,0.00
2022-12-18T04:18:26.291Z,0.00
2022-12-18T04:19:26.271Z,0.00
2022-12-18T04:20:26.300Z,0.00
2022-12-18T04:21:26.251Z,0.00
2022-12-18T04:22:26.328Z,0.00
2022-12-18T04:23:26.231Z,0.00
2022-12-18T04:24:26.252Z,0.00
2022-12-18T04:25:26.216Z,0.00
2022-12-18T04:26:26.267Z,0.00
2022-12-18T04:27:26.270Z,0.00
2022-12-18T04:28:26.204Z,0.00
2022-12-18T04:29:26.205Z,0.00
2022-12-18T04:30:26.216Z,0.00
2022-12-18T04:31:26.278Z,0.00
2022-12-18T04:32:26.241Z,0.00
2022-12-18T04:33:26.193Z,0.00
2022-12-18T04:34:26.177Z,0.00
2022-12-18T04:35:26.403Z,0.00
2022-12-18T04:36:26.230Z,0.00
2022-12-18T04:37:26.203Z,0.00
2022-12-18T04:38:32.078Z,0.00
2022-12-18T04:39:27.235Z,0.00
2022-12-18T04:40:26.152Z,0.00
2022-12-18T04:41:26.173Z,0.00
2022-12-18T04:42:26.182Z,0.00
2022-12-18T04:43:26.149Z,0.00
2022-12-18T04:44:26.123Z,0.00
2022-12-18T04:45:26.137Z,0.00
2022-12-18T04:46:26.323Z,0.00
2022-12-18T04:47:26.144Z,0.00
2022-12-18T04:48:26.110Z,0.00
2022-12-18T04:49:26.134Z,0.00
2022-12-18T04:50:26.103Z,0.00
2022-12-18T04:51:26.855Z,0.00
2022-12-18T04:52:27.119Z,0.00
2022-12-18T04:53:26.125Z,0.00
2022-12-18T04:54:26.059Z,0.00
2022-12-18T04:55:26.148Z,0.00
2022-12-18T04:56:26.125Z,0.00
2022-12-18T04:57:26.044Z,0.00
2022-12-18T04:58:26.183Z,0.00
2022-12-18T04:59:26.029Z,0.00
2022-12-18T05:00:26.041Z,0.00
2022-12-18T05:01:30.985Z,0.00
2022-12-18T05:02:28.130Z,0.00
2022-12-18T05:03:26.108Z,0.00
2022-12-18T05:04:26.091Z,0.00
2022-12-18T05:05:26.002Z,0.00
2022-12-18T05:06:26.042Z,0.00
2022-12-18T05:07:26.028Z,0.00
2022-12-18T05:08:26.027Z,0.00
2022-12-18T05:09:26.093Z,0.00
2022-12-18T05:10:25.977Z,0.00
2022-12-18T05:11:26.083Z,0.00
2022-12-18T05:12:25.955Z,0.00
2022-12-18T05:13:25.963Z,0.00
2022-12-18T05:14:26.004Z,0.00
2022-12-18T05:15:25.999Z,0.00
2022-12-18T05:16:26.035Z,0.00
2022-12-18T05:17:25.956Z,0.00
2022-12-18T05:18:25.946Z,0.00
2022-12-18T05:19:25.976Z,0.00
2022-12-18T05:20:25.933Z,0.00
2022-12-18T05:21:25.987Z,0.00
2022-12-18T05:22:25.984Z,0.00
2022-12-18T05:23:26.381Z,0.00
2022-12-18T05:24:25.917Z,0.00
2022-12-18T05:25:26.074Z,0.00
2022-12-18T05:26:26.983Z,0.00
2022-12-18T05:27:26.004Z,0.00
2022-12-18T05:28:25.948Z,0.00
2022-12-18T05:29:26.015Z,0.00
2022-12-18T05:30:25.890Z,0.00
2022-12-18T05:31:25.953Z,0.00
2022-12-18T05:32:25.907Z,0.00
2022-12-18T05:33:25.890Z,0.00
2022-12-18T05:34:25.918Z,0.00
2022-12-18T05:35:25.865Z,0.00
2022-12-18T05:36:25.949Z,0.00
2022-12-18T05:37:25.865Z,0.00
2022-12-18T05:38:25.827Z,0.00
2022-12-18T05:39:25.894Z,0.00
2022-12-18T05:40:25.847Z,0.00
2022-12-18T05:41:25.835Z,0.00
2022-12-18T05:42:25.845Z,0.00
2022-12-18T05:43:25.865Z,0.00
2022-12-18T05:44:25.836Z,0.00
2022-12-18T05:45:25.833Z,0.00
2022-12-18T05:46:25.881Z,0.00
2022-12-18T05:47:25.811Z,0.00
2022-12-18T05:48:25.815Z,0.00
2022-12-18T05:49:25.844Z,0.00
2022-12-18T05:50:25.812Z,0.00
2022-12-18T05:51:25.801Z,0.00
2022-12-18T05:52:25.825Z,0.00
2022-12-18T05:53:25.764Z,0.00
2022-12-18T05:54:25.763Z,0.00
2022-12-18T05:55:25.758Z,0.00
2022-12-18T05:56:25.724Z,0.00
2022-12-18T05:57:25.737Z,0.00
2022-12-18T05:58:25.729Z,0.00
2022-12-18T05:59:25.839Z,0.00
2022-12-18T06:00:25.743Z,0.00
2022-12-18T06:01:25.886Z,0.00
2022-12-18T06:02:25.798Z,0.00
2022-12-18T06:03:29.375Z,0.00
2022-12-18T06:04:27.752Z,0.00
2022-12-18T06:05:25.723Z,0.00
2022-12-18T06:06:25.697Z,0.00
2022-12-18T06:07:25.684Z,0.00
2022-12-18T06:08:25.697Z,0.00
2022-12-18T06:09:25.692Z,0.00
2022-12-18T06:10:25.727Z,0.00
2022-12-18T06:11:25.751Z,0.00
2022-12-18T06:12:25.707Z,0.00
2022-12-18T06:13:25.696Z,0.00
2022-12-18T06:14:25.769Z,0.00
2022-12-18T06:15:25.819Z,0.00
2022-12-18T06:16:25.766Z,0.00
2022-12-18T06:17:25.672Z,0.00
2022-12-18T06:18:25.661Z,0.00
2022-12-18T06:19:25.785Z,0.00
2022-12-18T06:20:30.411Z,0.00
2022-12-18T06:21:27.682Z,0.00
2022-12-18T06:22:25.664Z,0.00
2022-12-18T06:23:25.625Z,0.00
2022-12-18T06:24:25.732Z,0.00
2022-12-18T06:25:25.661Z,0.00
2022-12-18T06:26:28.230Z,0.00
2022-12-18T06:27:26.644Z,0.00
2022-12-18T06:28:25.735Z,0.00
2022-12-18T06:29:25.609Z,0.00
2022-12-18T06:30:25.621Z,0.00
2022-12-18T06:31:25.772Z,0.00
2022-12-18T06:32:25.722Z,0.00
2022-12-18T06:33:25.573Z,0.00
2022-12-18T06:34:25.602Z,0.00
2022-12-18T06:35:25.646Z,0.00
2022-12-18T06:36:25.719Z,0.00
2022-12-18T06:37:25.581Z,0.00
2022-12-18T06:38:25.581Z,0.00
2022-12-18T06:39:25.527Z,0.00
2022-12-18T06:40:25.556Z,0.00
2022-12-18T06:41:25.571Z,0.00
2022-12-18T06:42:25.553Z,0.00
2022-12-18T06:43:25.547Z,0.00
2022-12-18T06:44:25.496Z,0.00
2022-12-18T06:45:25.553Z,0.00
2022-12-18T06:46:25.487Z,0.00
2022-12-18T06:47:25.594Z,0.00
2022-12-18T06:48:25.539Z,0.00
2022-12-18T06:49:30.259Z,0.00
2022-12-18T06:50:27.457Z,0.00
2022-12-18T06:51:25.471Z,0.00
2022-12-18T06:52:25.439Z,0.00
2022-12-18T06:53:25.511Z,0.00
2022-12-18T06:54:25.451Z,0.00
2022-12-18T06:55:25.435Z,0.00
2022-12-18T06:56:25.444Z,0.00
2022-12-18T06:57:25.450Z,0.00
2022-12-18T06:58:25.423Z,0.00
2022-12-18T06:59:25.523Z,0.00
2022-12-18T07:00:25.447Z,0.00
2022-12-18T07:01:25.510Z,0.00
2022-12-18T07:02:25.494Z,0.00
2022-12-18T07:03:25.426Z,0.00
2022-12-18T07:04:25.443Z,0.00
2022-12-18T07:05:25.417Z,0.00
2022-12-18T07:06:25.376Z,0.00
2022-12-18T07:07:25.367Z,0.00
2022-12-18T07:08:25.356Z,0.00
2022-12-18T07:09:25.472Z,0.00
2022-12-18T07:10:25.426Z,0.00
2022-12-18T07:11:25.389Z,0.00
2022-12-18T07:12:25.340Z,0.00
2022-12-18T07:13:25.386Z,0.00
2022-12-18T07:14:25.407Z,0.00
2022-12-18T07:15:25.335Z,0.00
2022-12-18T07:16:26.089Z,0.00
2022-12-18T07:17:26.310Z,0.00
2022-12-18T07:18:25.306Z,0.00
2022-12-18T07:19:25.349Z,0.00
2022-12-18T07:20:25.336Z,0.00
2022-12-18T07:21:25.459Z,0.00
2022-12-18T07:22:25.303Z,0.00
2022-12-18T07:23:25.260Z,0.00
2022-12-18T07:24:25.275Z,0.00
2022-12-18T07:25:25.252Z,5.62
2022-12-18T07:26:25.251Z,5.62
2022-12-18T07:27:25.262Z,5.62
2022-12-18T07:28:25.230Z,5.62
2022-12-18T07:29:25.246Z,5.62
2022-12-18T07:30:25.209Z,5.62
2022-12-18T07:31:25.353Z,5.62
2022-12-18T07:32:25.251Z,5.62
2022-12-18T07:33:25.199Z,5.62
2022-12-18T07:34:25.220Z,5.62
2022-12-18T07:35:31.075Z,5.62
2022-12-18T07:36:27.312Z,5.62
2022-12-18T07:37:25.241Z,5.62
2022-12-18T07:38:25.165Z,11.25
2022-12-18T07:39:25.184Z,11.25
2022-12-18T07:40:25.153Z,11.25
2022-12-18T07:41:25.193Z,11.25
2022-12-18T07:42:25.199Z,11.25
2022-12-18T07:43:25.151Z,11.25
2022-12-18T07:44:25.170Z,11.25
2022-12-18T07:45:25.290Z,11.25
2022-12-18T07:46:25.180Z,11.25
2022-12-18T07:47:25.136Z,11.25
2022-12-18T07:48:25.114Z,11.25
2022-12-18T07:49:25.132Z,16.88
2022-12-18T07:50:25.100Z,16.88
2022-12-18T07:51:25.121Z,16.88
2022-12-18T07:52:26.329Z,16.88
2022-12-18T07:53:26.099Z,22.50
2022-12-18T07:54:25.163Z,22.50
2022-12-18T07:55:25.111Z,22.50
2022-12-18T07:56:28.235Z,22.50
2022-12-18T07:57:50.790Z,22.50
2022-12-18T07:58:27.095Z,28.12
2022-12-18T07:59:25.109Z,28.12
2022-12-18T08:00:25.106Z,28.12
2022-12-18T08:01:25.231Z,28.12
2022-12-18T08:02:25.200Z,33.75
2022-12-18T08:03:25.128Z,33.75
2022-12-18T08:04:25.067Z,39.38
2022-12-18T08:05:25.060Z,50.62
2022-12-18T08:06:25.108Z,45.00
2022-12-18T08:07:25.027Z,45.00
2022-12-18T08:08:25.089Z,39.38
2022-12-18T08:09:25.049Z,39.38
2022-12-18T08:10:25.016Z,39.38
2022-12-18T08:11:25.041Z,39.38
2022-12-18T08:12:25.038Z,39.38
2022-12-18T08:13:24.979Z,45.00
2022-12-18T08:14:24.999Z,45.00
2022-12-18T08:15:25.001Z,39.38
2022-12-18T08:16:26.045Z,39.38
2022-12-18T08:17:24.997Z,39.38
2022-12-18T08:18:25.003Z,39.38
2022-12-18T08:19:25.061Z,39.38
2022-12-18T08:20:25.023Z,45.00
2022-12-18T08:21:24.976Z,39.38
2022-12-18T08:22:24.975Z,33.75
2022-12-18T08:23:28.635Z,33.75
2022-12-18T08:24:24.988Z,39.38
2022-12-18T08:25:25.019Z,45.00
2022-12-18T08:26:24.945Z,45.00
2022-12-18T08:27:29.698Z,39.38
2022-12-18T08:28:26.926Z,39.38
2022-12-18T08:29:24.927Z,33.75
2022-12-18T08:30:25.048Z,39.38
2022-12-18T08:31:24.915Z,45.00
2022-12-18T08:32:24.980Z,45.00
2022-12-18T08:33:24.949Z,50.62
2022-12-18T08:34:24.892Z,39.38
2022-12-18T08:35:24.891Z,28.12
2022-12-18T08:36:24.871Z,28.12
2022-12-18T08:37:24.896Z,33.75
2022-12-18T08:38:24.894Z,33.75
2022-12-18T08:39:24.927Z,45.00
2022-12-18T08:40:24.988Z,50.62
2022-12-18T08:41:24.854Z,50.62
2022-12-18T08:42:24.872Z,50.62
2022-12-18T08:43:24.871Z,56.25
2022-12-18T08:44:24.875Z,56.25
2022-12-18T08:45:24.821Z,56.25
2022-12-18T08:46:24.940Z,56.25
2022-12-18T08:47:24.856Z,61.88
2022-12-18T08:48:24.808Z,61.88
2022-12-18T08:49:24.803Z,67.50
2022-12-18T08:50:24.925Z,67.50
2022-12-18T08:51:24.780Z,67.50
2022-12-18T08:52:24.799Z,73.12
2022-12-18T08:53:24.817Z,78.75
2022-12-18T08:54:24.799Z,78.75
2022-12-18T08:55:24.770Z,84.38
2022-12-18T08:56:24.823Z,84.38
2022-12-18T08:57:24.762Z,78.75
2022-12-18T08:58:24.780Z,90.00
2022-12-18T08:59:24.764Z,106.88
2022-12-18T09:00:24.796Z,118.12
2022-12-18T09:01:24.882Z,90.00
2022-12-18T09:02:24.808Z,95.62
2022-12-18T09:03:24.741Z,135.00
2022-12-18T09:04:24.717Z,135.00
2022-12-18T09:05:24.697Z,151.88
2022-12-18T09:06:24.707Z,129.38
2022-12-18T09:07:24.673Z,118.12
2022-12-18T09:08:24.720Z,140.62
2022-12-18T09:09:24.669Z,146.25
2022-12-18T09:10:24.650Z,180.00
2022-12-18T09:11:25.679Z,135.00
2022-12-18T09:12:24.710Z,140.62
2022-12-18T09:13:24.677Z,270.00
2022-12-18T09:14:24.635Z,286.88
2022-12-18T09:15:24.614Z,174.38
2022-12-18T09:16:28.773Z,303.75
2022-12-18T09:17:26.681Z,230.62
2022-12-18T09:18:24.634Z,129.38
2022-12-18T09:19:25.629Z,135.00
2022-12-18T09:20:24.608Z,112.50
2022-12-18T09:21:24.655Z,101.25
2022-12-18T09:22:24.590Z,95.62
2022-12-18T09:23:24.610Z,95.62
2022-12-18T09:24:24.568Z,101.25
2022-12-18T09:25:24.589Z,95.62
2022-12-18T09:26:24.579Z,106.88
2022-12-18T09:27:24.617Z,123.75
2022-12-18T09:28:24.610Z,123.75
2022-12-18T09:29:24.540Z,163.12
2022-12-18T09:30:24.516Z,196.88
2022-12-18T09:31:24.610Z,140.62
2022-12-18T09:32:24.599Z,129.38
2022-12-18T09:33:24.530Z,146.25
2022-12-18T09:34:24.585Z,157.50
2022-12-18T09:35:24.498Z,129.38
2022-12-18T09:36:24.492Z,129.38
2022-12-18T09:37:24.520Z,146.25
2022-12-18T09:38:24.471Z,140.62
2022-12-18T09:39:24.483Z,129.38
2022-12-18T09:40:24.483Z,180.00
2022-12-18T09:41:24.451Z,247.50
2022-12-18T09:42:24.493Z,225.00
2022-12-18T09:43:24.428Z,157.50
2022-12-18T09:44:24.696Z,157.50
2022-12-18T09:45:24.420Z,174.38
2022-12-18T09:46:24.469Z,191.25
2022-12-18T09:47:24.410Z,225.00
2022-12-18T09:48:24.409Z,258.75
2022-12-18T09:49:24.435Z,270.00
2022-12-18T09:50:24.508Z,202.50
2022-12-18T09:51:24.406Z,180.00
2022-12-18T09:52:24.405Z,185.62
2022-12-18T09:53:24.385Z,151.88
2022-12-18T09:54:24.435Z,123.75
2022-12-18T09:55:24.390Z,135.00
2022-12-18T09:56:24.386Z,129.38
2022-12-18T09:57:24.385Z,118.12
2022-12-18T09:58:24.330Z,112.50
2022-12-18T09:59:24.385Z,106.88
2022-12-18T10:00:24.488Z,101.25
2022-12-18T10:01:24.505Z,106.88
2022-12-18T10:02:24.403Z,112.50
2022-12-18T10:03:24.298Z,112.50
2022-12-18T10:04:24.366Z,106.88
2022-12-18T10:05:24.317Z,118.12
2022-12-18T10:06:24.320Z,129.38
2022-12-18T10:07:24.272Z,129.38
2022-12-18T10:08:24.274Z,140.62
2022-12-18T10:09:24.269Z,168.75
2022-12-18T10:10:24.257Z,196.88
2022-12-18T10:11:24.292Z,196.88
2022-12-18T10:12:24.239Z,151.88
2022-12-18T10:13:24.324Z,146.25
2022-12-18T10:14:24.232Z,146.25
2022-12-18T10:15:24.228Z,135.00
2022-12-18T10:16:30.125Z,140.62
2022-12-18T10:17:25.278Z,146.25
2022-12-18T10:18:24.208Z,146.25
2022-12-18T10:19:24.235Z,146.25
2022-12-18T10:20:24.187Z,146.25
2022-12-18T10:21:24.175Z,140.62
2022-12-18T10:22:24.389Z,123.75
2022-12-18T10:23:24.182Z,129.38
2022-12-18T10:24:24.254Z,140.62
2022-12-18T10:25:24.155Z,129.38
2022-12-18T10:26:24.154Z,118.12
2022-12-18T10:27:24.166Z,112.50
2022-12-18T10:28:24.136Z,118.12
2022-12-18T10:29:24.152Z,157.50
2022-12-18T10:30:24.110Z,180.00
2022-12-18T10:31:24.682Z,196.88
2022-12-18T10:32:24.133Z,219.38
2022-12-18T10:33:24.105Z,196.88
2022-12-18T10:34:24.188Z,219.38
2022-12-18T10:35:24.082Z,219.38
2022-12-18T10:36:24.080Z,208.12
2022-12-18T10:37:24.118Z,230.62
2022-12-18T10:38:24.078Z,258.75
2022-12-18T10:39:24.103Z,292.50
2022-12-18T10:40:24.101Z,241.88
2022-12-18T10:41:24.059Z,191.25
2022-12-18T10:42:24.053Z,151.88
2022-12-18T10:43:24.061Z,174.38
2022-12-18T10:44:24.075Z,196.88
2022-12-18T10:45:24.018Z,185.62
2022-12-18T10:46:24.093Z,185.62
2022-12-18T10:47:24.025Z,174.38
2022-12-18T10:48:24.006Z,146.25
2022-12-18T10:49:24.083Z,106.88
2022-12-18T10:50:26.197Z,106.88
2022-12-18T10:51:25.022Z,123.75
2022-12-18T10:52:24.014Z,157.50
2022-12-18T10:53:24.112Z,180.00
2022-12-18T10:54:23.974Z,146.25
2022-12-18T10:55:23.987Z,129.38
2022-12-18T10:56:23.972Z,146.25
2022-12-18T10:57:23.974Z,213.75
2022-12-18T10:58:38.695Z,219.38
2022-12-18T10:59:25.949Z,157.50
2022-12-18T11:00:23.923Z,129.38
2022-12-18T11:01:24.070Z,135.00
2022-12-18T11:02:24.182Z,129.38
2022-12-18T11:03:23.946Z,129.38
2022-12-18T11:04:23.921Z,151.88
2022-12-18T11:05:23.890Z,191.25
2022-12-18T11:06:24.004Z,236.25
2022-12-18T11:07:23.936Z,253.12
2022-12-18T11:08:23.871Z,191.25
2022-12-18T11:09:23.919Z,146.25
2022-12-18T11:10:23.909Z,151.88
2022-12-18T11:11:23.888Z,151.88
2022-12-18T11:12:23.883Z,146.25
2022-12-18T11:13:23.867Z,140.62
2022-12-18T11:14:23.883Z,123.75
2022-12-18T11:15:23.848Z,118.12
2022-12-18T11:16:23.930Z,106.88
2022-12-18T11:17:25.850Z,106.88
2022-12-18T11:18:24.815Z,101.25
2022-12-18T11:19:23.897Z,101.25
2022-12-18T11:20:23.824Z,101.25
2022-12-18T11:21:23.805Z,101.25
2022-12-18T11:22:23.891Z,101.25
2022-12-18T11:23:23.850Z,101.25
2022-12-18T11:24:23.794Z,101.25
2022-12-18T11:25:32.988Z,101.25
2022-12-18T11:26:25.765Z,101.25
2022-12-18T11:27:23.813Z,95.62
2022-12-18T11:28:23.796Z,95.62
2022-12-18T11:29:23.732Z,95.62
2022-12-18T11:30:23.758Z,95.62
2022-12-18T11:31:23.784Z,95.62
2022-12-18T11:32:23.753Z,95.62
2022-12-18T11:33:24.188Z,95.62
2022-12-18T11:34:31.005Z,95.62
2022-12-18T11:35:25.691Z,95.62
2022-12-18T11:36:23.726Z,95.62
2022-12-18T11:37:23.685Z,95.62
2022-12-18T11:38:24.844Z,95.62
2022-12-18T11:39:23.719Z,95.62
2022-12-18T11:40:23.689Z,95.62
2022-12-18T11:41:23.733Z,95.62
2022-12-18T11:42:23.666Z,95.62
2022-12-18T11:43:23.668Z,95.62
2022-12-18T11:44:23.710Z,95.62
2022-12-18T11:45:23.658Z,95.62
2022-12-18T11:46:23.697Z,95.62
2022-12-18T11:47:23.627Z,95.62
2022-12-18T11:48:23.628Z,95.62
2022-12-18T11:49:23.652Z,95.62
2022-12-18T11:50:23.674Z,95.62
2022-12-18T11:51:27.163Z,95.62
2022-12-18T11:52:24.655Z,101.25
2022-12-18T11:53:23.644Z,95.62
2022-12-18T11:54:23.692Z,95.62
2022-12-18T11:55:23.668Z,90.00
2022-12-18T11:56:23.576Z,95.62
2022-12-18T11:57:23.584Z,95.62
2022-12-18T11:58:29.373Z,95.62
2022-12-18T11:59:24.611Z,95.62
2022-12-18T12:00:23.572Z,95.62
2022-12-18T12:01:23.597Z,90.00
2022-12-18T12:02:23.821Z,90.00
2022-12-18T12:03:23.576Z,90.00
2022-12-18T12:04:23.651Z,90.00
2022-12-18T12:05:23.553Z,90.00
2022-12-18T12:06:23.512Z,90.00
2022-12-18T12:07:23.539Z,84.38
2022-12-18T12:08:23.535Z,84.38
2022-12-18T12:09:23.497Z,84.38
2022-12-18T12:10:23.586Z,84.38
2022-12-18T12:11:24.475Z,84.38
2022-12-18T12:12:23.467Z,84.38
2022-12-18T12:13:23.505Z,90.00
2022-12-18T12:14:23.478Z,90.00
2022-12-18T12:15:23.480Z,90.00
2022-12-18T12:16:23.511Z,90.00
2022-12-18T12:17:23.444Z,90.00
2022-12-18T12:18:23.465Z,90.00
2022-12-18T12:19:23.537Z,90.00
2022-12-18T12:20:23.420Z,90.00
2022-12-18T12:21:23.443Z,90.00
2022-12-18T12:22:23.433Z,90.00
2022-12-18T12:23:27.497Z,84.38
2022-12-18T12:24:24.424Z,84.38
2022-12-18T12:25:23.376Z,84.38
2022-12-18T12:26:23.449Z,84.38
2022-12-18T12:27:24.791Z,78.75
2022-12-18T12:28:23.373Z,78.75
2022-12-18T12:29:23.407Z,78.75
2022-12-18T12:30:23.380Z,78.75
2022-12-18T12:31:23.435Z,73.12
2022-12-18T12:32:23.344Z,73.12
2022-12-18T12:33:23.372Z,73.12
2022-12-18T12:34:23.336Z,73.12
2022-12-18T12:35:23.348Z,73.12
2022-12-18T12:36:23.488Z,67.50
2022-12-18T12:37:23.355Z,67.50
2022-12-18T12:38:23.317Z,67.50
2022-12-18T12:39:23.384Z,67.50
2022-12-18T12:40:50.193Z,67.50
2022-12-18T12:41:25.355Z,67.50
2022-12-18T12:42:23.302Z,67.50
2022-12-18T12:43:23.339Z,61.88
2022-12-18T12:44:23.302Z,61.88
2022-12-18T12:45:23.397Z,61.88
2022-12-18T12:46:23.420Z,61.88
2022-12-18T12:47:23.288Z,61.88
2022-12-18T12:48:23.278Z,61.88
2022-12-18T12:49:23.248Z,61.88
2022-12-18T12:50:23.325Z,61.88
2022-12-18T12:51:23.285Z,61.88
2022-12-18T12:52:23.218Z,61.88
2022-12-18T12:53:23.258Z,61.88
2022-12-18T12:54:23.202Z,61.88
2022-12-18T12:55:23.210Z,56.25
2022-12-18T12:56:23.181Z,56.25
2022-12-18T12:57:23.253Z,56.25
2022-12-18T12:58:23.226Z,56.25
2022-12-18T12:59:23.202Z,56.25
2022-12-18T13:00:23.242Z,56.25
2022-12-18T13:01:23.844Z,56.25
2022-12-18T13:02:24.308Z,56.25